METAR AND TAF INFORMATION
METAR FOR PANA
ADDS - METARS form results

(1957 UTC 29 January 2020)
Data provider http://aviationweather.gov/metar/data/
 
METAR text: PANA 291956Z AUTO 34011KT 10SM CLR M27/M31 A2935 RMK AO2 SLP938 T12671306 PWINO FZRANO $
Conditions at: PANA (NAPAKIAK , AK, US) observed 1956 UTC 29 January 2020
Temperature: -26.7°C (-16°F)
Dewpoint: -30.6°C (-23°F) [RH = 70%]
Pressure (altimeter): 29.35 inches Hg (994.0 mb)
[Sea-level pressure:  993.8 mb]
Winds: from the NNW (340 degrees) at 13 MPH (11 knots; 5.7 m/s)
Visibility: 10 or more miles (16+ km)
Ceiling: at least 12,000 feet AGL
Clouds: sky clear below 12,000 feet AGL
Weather:
SOME DATA ABOVE MAY BE INACCURATE!!!
"$" is an indication the sensor requires maintenance

 AIRPORT MAP

 RUNWAY INFORMATION
Runway 16 Runway length 3248 ft Runway width 60 ft
Runway elevation 16 ft Runway displaced threshold 0 ft Runway heading 175
Runway 34 Runway length 3248 ft Runway width 60 ft
Runway elevation 16 ft Runway displaced threshold 0 ft Runway heading 355

 AIRPORT FREQUENCIES

 AIRPORT NEAR NAVIGATION AIDS



We are a FlightSim virtual group and are in no way affiliated with RavnAir Group.

Powered by Virtual Airlines Manager [v2.6.2]